Terminal Aerodrome Forecast
Issued by NWS

Home | Current Version | Previous Version | Text Only | Print | Product List | Glossary Off
Versions: 1 2 3 4 5 6 7 8 9 10 11 12 13 14 15 16 17

108
FTUS41 KCLE 221133
TAFFDY
TAF
KFDY 221133Z 2212/2312 17008KT P6SM -SHRA BKN045 OVC090
     FM221400 20007KT P6SM BKN045 OVC090
     FM221700 23010KT P6SM VCTS SCT040CB BKN080
     FM222100 26010KT P6SM SCT040 BKN080
     FM230800 26005KT 6SM BR BKN025 BKN040
     FM231100 26005KT 5SM BR SCT007 OVC015=

USA.gov is the U.S. government's official web portal to all federal, state and local government web resources and services.